Time;durP1;ratioP1;P1;durP2;ratioP2;P2;SDS_P1;SDS_P2;PMS_P1;PMS_P2;Temp;Humidity;BMP_temperature;BMP_pressure;BME280_temperature;BME280_humidity;BME280_pressure;Samples;Min_cycle;Max_cycle;Signal;HPM_P1;HPM_P2
2022/09/01 00:02:14;;;;;;;11.85;8.00;;;;;;;22.03;62.66;100520.78;5081985;28;20093;-81
2022/09/01 00:04:40;;;;;;;17.30;7.70;;;;;;;22.11;62.67;100528.63;5105315;28;20511;-80
2022/09/01 00:07:06;;;;;;;16.65;7.07;;;;;;;22.00;62.76;100518.50;5101308;28;20110;-80
2022/09/01 00:09:32;;;;;;;13.95;7.57;;;;;;;21.93;62.81;100504.94;5099529;28;20043;-81
2022/09/01 00:11:58;;;;;;;13.00;7.20;;;;;;;21.97;63.02;100515.44;5100134;28;20035;-82
2022/09/01 00:14:28;;;;;;;13.95;7.20;;;;;;;21.99;63.12;100522.34;5089232;28;20118;-81
2022/09/01 00:16:55;;;;;;;13.73;7.63;;;;;;;21.94;62.85;100519.50;5100063;28;20034;-81
2022/09/01 00:19:22;;;;;;;14.15;7.35;;;;;;;21.83;62.82;100499.25;5087290;28;20125;-81
2022/09/01 00:21:47;;;;;;;14.55;7.97;;;;;;;22.02;62.85;100521.84;5107964;28;20040;-84
2022/09/01 00:24:14;;;;;;;11.25;7.50;;;;;;;21.84;63.24;100509.13;5087069;28;20100;-81
2022/09/01 00:26:40;;;;;;;14.57;7.38;;;;;;;21.92;63.33;100530.66;5083594;28;20492;-83
2022/09/01 00:29:05;;;;;;;12.55;7.65;;;;;;;21.89;62.94;100533.03;5094357;28;20089;-80
2022/09/01 00:31:32;;;;;;;14.25;7.38;;;;;;;21.90;63.36;100523.78;5062595;28;20140;-80
2022/09/01 00:33:59;;;;;;;15.60;7.93;;;;;;;21.82;63.45;100524.97;5103189;28;20130;-81
2022/09/01 00:36:25;;;;;;;13.30;7.47;;;;;;;21.84;63.28;100517.34;5097461;28;20395;-81
2022/09/01 00:38:51;;;;;;;15.75;7.38;;;;;;;21.77;63.29;100510.31;5104440;28;20048;-82
2022/09/01 00:41:19;;;;;;;11.23;7.60;;;;;;;21.69;63.83;100517.00;5106314;28;20062;-82
2022/09/01 00:43:49;;;;;;;12.10;7.57;;;;;;;21.69;63.49;100520.56;5106813;28;20128;-81
2022/09/01 00:46:21;;;;;;;11.40;7.28;;;;;;;21.64;64.00;100534.13;5104543;28;20031;-81
2022/09/01 00:49:01;;;;;;;15.00;7.43;;;;;;;21.69;63.82;100527.94;5102772;28;20066;-81
2022/09/01 00:51:27;;;;;;;10.85;7.32;;;;;;;21.67;63.74;100544.59;5102409;28;20059;-82
2022/09/01 00:53:54;;;;;;;9.90;7.25;;;;;;;21.66;63.74;100533.91;5109442;28;20033;-82
2022/09/01 00:56:21;;;;;;;11.60;7.60;;;;;;;21.67;63.94;100541.03;5093510;28;20041;-83
2022/09/01 00:58:50;;;;;;;13.50;7.97;;;;;;;21.56;63.71;100529.00;5106115;28;20486;-82
2022/09/01 01:01:16;;;;;;;11.68;7.38;;;;;;;21.62;63.69;100539.00;5084553;28;20054;-82
2022/09/01 01:03:45;;;;;;;11.10;7.20;;;;;;;21.58;63.92;100539.69;5111440;28;20028;-80
2022/09/01 01:06:14;;;;;;;14.85;7.50;;;;;;;21.45;64.51;100538.03;5087564;28;20410;-83
2022/09/01 01:08:59;;;;;;;13.77;7.97;;;;;;;21.36;64.71;100539.41;5105118;28;20051;-81
2022/09/01 01:11:31;;;;;;;13.35;7.25;;;;;;;21.38;64.21;100526.34;5119204;28;20020;-80
2022/09/01 01:14:14;;;;;;;12.35;7.55;;;;;;;21.47;64.11;100527.69;5124899;28;20043;-81
2022/09/01 01:16:42;;;;;;;9.45;7.13;;;;;;;21.38;64.85;100534.56;5119559;28;20034;-82
2022/09/01 01:23:00;;;;;;;13.23;7.50;;;;;;;21.19;64.44;100500.97;5104694;28;20122;-82
2022/09/01 01:24:44;;;;;;;12.88;7.80;;;;;;;21.38;64.60;100534.56;5117794;28;20033;-80
2022/09/01 01:27:10;;;;;;;13.77;7.63;;;;;;;21.31;64.59;100518.25;5124222;28;20303;-82
2022/09/01 01:29:38;;;;;;;12.07;7.25;;;;;;;21.28;64.94;100527.75;5108275;28;20488;-82
2022/09/01 01:32:11;;;;;;;14.00;7.55;;;;;;;21.23;65.11;100524.88;5123551;28;20160;-82
2022/09/01 01:34:41;;;;;;;14.82;7.50;;;;;;;21.22;64.97;100530.59;5123724;28;20020;-81
2022/09/01 01:37:09;;;;;;;11.95;6.97;;;;;;;21.24;65.00;100526.56;5086639;28;20023;-81
2022/09/01 01:39:41;;;;;;;10.77;7.10;;;;;;;21.17;65.00;100528.56;5086602;28;20426;-81
2022/09/01 01:42:09;;;;;;;14.13;7.38;;;;;;;21.11;65.53;100526.75;5106968;28;20052;-82
2022/09/01 01:44:35;;;;;;;11.23;7.20;;;;;;;21.05;65.38;100522.25;5078996;28;20187;-81
2022/09/01 01:47:07;;;;;;;10.02;6.78;;;;;;;20.95;65.92;100517.31;5081858;28;20027;-82
2022/09/01 01:49:32;;;;;;;10.90;6.70;;;;;;;21.01;65.61;100518.31;5103013;28;20484;-81
2022/09/01 01:52:00;;;;;;;13.10;6.97;;;;;;;21.03;65.61;100532.56;5093100;28;20146;-80
2022/09/01 01:54:28;;;;;;;17.48;7.30;;;;;;;20.86;66.01;100524.16;5121726;28;20028;-81
2022/09/01 01:56:54;;;;;;;13.25;6.93;;;;;;;20.97;65.87;100528.03;5077083;28;20091;-83
2022/09/01 01:59:25;;;;;;;13.02;6.90;;;;;;;20.86;65.94;100533.22;5093021;27;20036;-81
2022/09/01 02:01:51;;;;;;;11.27;6.78;;;;;;;20.78;65.92;100517.13;5081214;27;20051;-80
2022/09/01 02:04:18;;;;;;;11.45;7.00;;;;;;;20.78;65.97;100530.81;5121131;27;20031;-80
2022/09/01 02:06:46;;;;;;;10.93;7.10;;;;;;;20.80;66.22;100525.94;5101549;27;20035;-81
2022/09/01 02:09:13;;;;;;;14.82;6.95;;;;;;;20.71;66.05;100508.22;5130774;27;20108;-81
2022/09/01 02:11:40;;;;;;;10.98;6.72;;;;;;;20.90;65.85;100530.84;5108958;27;20035;-81
2022/09/01 02:14:06;;;;;;;8.55;6.78;;;;;;;20.80;65.78;100531.41;5106452;28;20043;-81
2022/09/01 02:16:33;;;;;;;11.63;6.57;;;;;;;20.84;65.84;100524.41;5126845;27;20027;-83
2022/09/01 02:18:59;;;;;;;10.27;6.82;;;;;;;20.84;65.69;100524.41;5105784;27;20054;-81
2022/09/01 02:21:25;;;;;;;12.05;6.90;;;;;;;20.86;65.43;100514.09;5115980;27;20203;-81
2022/09/01 02:24:02;;;;;;;10.80;6.53;;;;;;;20.78;66.13;100524.50;5092034;27;20037;-82
2022/09/01 02:26:46;;;;;;;13.05;6.72;;;;;;;20.78;65.67;100511.69;5114380;27;20035;-81
2022/09/01 02:29:20;;;;;;;9.85;6.32;;;;;;;20.80;65.86;100517.75;5094057;27;20019;-82
2022/09/01 02:31:48;;;;;;;11.53;6.90;;;;;;;20.76;65.82;100519.28;5095336;27;20038;-82
2022/09/01 02:34:14;;;;;;;14.57;6.65;;;;;;;20.74;65.35;100498.72;5114193;27;20054;-81
2022/09/01 02:36:48;;;;;;;12.27;6.50;;;;;;;20.76;65.68;100508.34;5128326;27;20042;-83
2022/09/01 02:39:22;;;;;;;10.43;6.57;;;;;;;20.76;65.38;100494.69;5125145;27;20494;-81
2022/09/01 02:41:49;;;;;;;9.68;6.38;;;;;;;20.81;65.43;100505.78;5103476;27;20035;-81
2022/09/01 02:44:21;;;;;;;12.05;6.97;;;;;;;20.74;65.80;100504.19;5128295;27;20035;-80
2022/09/01 02:46:47;;;;;;;12.07;6.78;;;;;;;20.71;65.96;100515.56;5112423;27;20035;-80
2022/09/01 02:49:18;;;;;;;8.70;6.70;;;;;;;20.75;65.85;100516.78;5076503;28;20028;-80
2022/09/01 02:51:48;;;;;;;10.77;6.85;;;;;;;20.73;65.62;100510.72;5105409;27;20112;-82
2022/09/01 02:54:18;;;;;;;10.70;6.47;;;;;;;20.81;65.69;100513.97;5095879;27;20094;-80
2022/09/01 02:56:46;;;;;;;9.05;6.57;;;;;;;20.84;65.13;100518.13;5097058;27;20030;-80
2022/09/01 02:59:15;;;;;;;11.35;7.20;;;;;;;20.73;65.00;100503.34;5105496;27;20069;-81
2022/09/01 03:01:44;;;;;;;10.80;7.13;;;;;;;20.75;65.28;100517.63;5109558;27;20466;-81
2022/09/01 03:04:10;;;;;;;9.02;6.80;;;;;;;20.60;65.33;100507.13;5091280;28;20028;-81
2022/09/01 03:06:36;;;;;;;11.55;6.47;;;;;;;20.73;65.42;100517.00;5112616;27;20482;-80
2022/09/01 03:09:04;;;;;;;11.48;6.50;;;;;;;20.79;65.09;100518.81;5106651;27;20027;-81
2022/09/01 03:11:32;;;;;;;10.52;6.63;;;;;;;20.83;64.57;100513.72;5120651;27;20083;-82
2022/09/01 03:13:58;;;;;;;11.73;6.22;;;;;;;20.78;64.76;100522.59;5107870;27;20574;-81
2022/09/01 03:16:25;;;;;;;11.32;6.35;;;;;;;20.79;64.62;100521.56;5119527;27;20106;-81
2022/09/01 03:18:53;;;;;;;10.52;6.80;;;;;;;20.71;64.59;100510.13;5109185;27;20114;-81
2022/09/01 03:21:22;;;;;;;10.85;6.43;;;;;;;20.54;65.11;100520.81;5087466;27;20033;-80
2022/09/01 03:23:50;;;;;;;9.73;6.18;;;;;;;20.48;65.09;100524.47;5103495;27;20122;-82
2022/09/01 03:26:17;;;;;;;10.75;6.32;;;;;;;20.49;65.40;100524.25;5086265;28;20086;-81
2022/09/01 03:28:43;;;;;;;8.77;6.07;;;;;;;20.37;65.59;100526.06;5105251;27;20341;-81
2022/09/01 03:31:09;;;;;;;9.60;6.80;;;;;;;20.50;65.17;100536.00;5090916;27;20396;-80
2022/09/01 03:33:35;;;;;;;10.43;6.18;;;;;;;20.49;65.45;100535.16;5110573;27;20027;-83
2022/09/01 03:36:02;;;;;;;12.18;6.13;;;;;;;20.49;65.08;100524.25;5094368;27;20050;-81
2022/09/01 03:38:32;;;;;;;12.07;6.35;;;;;;;20.46;65.11;100524.69;5084531;28;20040;-80
2022/09/01 03:41:00;;;;;;;8.85;6.20;;;;;;;20.47;65.01;100528.28;5109507;27;20027;-80
2022/09/01 03:43:30;;;;;;;10.60;6.57;;;;;;;20.44;64.80;100527.66;5100245;27;20060;-82
2022/09/01 03:45:59;;;;;;;11.65;6.40;;;;;;;20.40;65.07;100525.63;5121445;27;20056;-81
2022/09/01 03:48:38;;;;;;;11.80;6.57;;;;;;;20.50;64.91;100527.81;5111105;27;20101;-79
2022/09/01 03:51:05;;;;;;;9.50;6.38;;;;;;;20.56;64.54;100519.56;5108759;28;20035;-83
2022/09/01 03:53:36;;;;;;;11.25;6.22;;;;;;;20.35;64.41;100499.00;5128029;27;20027;-81
2022/09/01 03:56:02;;;;;;;18.95;12.15;;;;;;;20.40;64.55;100510.06;5098927;28;20065;-81
2022/09/01 03:58:29;;;;;;;9.57;6.53;;;;;;;20.48;64.10;100505.34;5124592;27;20122;-82
2022/09/01 04:00:57;;;;;;;11.70;6.07;;;;;;;20.49;63.94;100512.50;5094037;27;20031;-81
2022/09/01 04:03:24;;;;;;;9.57;6.43;;;;;;;20.57;63.74;100526.66;5105357;27;20043;-82
2022/09/01 04:05:52;;;;;;;10.43;6.03;;;;;;;20.50;63.38;100503.22;5101014;27;20118;-82
2022/09/01 04:08:18;;;;;;;9.82;6.38;;;;;;;20.51;63.01;100505.72;5102437;27;20043;-85
2022/09/01 04:10:53;;;;;;;12.25;6.28;;;;;;;20.66;62.95;100519.81;5094498;28;20114;-84
2022/09/01 04:13:20;;;;;;;13.30;6.57;;;;;;;20.76;62.96;100538.38;5125585;27;20053;-82
2022/09/01 04:15:47;;;;;;;8.45;6.13;;;;;;;20.80;62.76;100541.50;5125312;27;20032;-81
2022/09/01 04:18:20;;;;;;;13.40;6.97;;;;;;;20.80;62.43;100539.59;5126231;27;20047;-80
2022/09/01 04:20:53;;;;;;;10.82;6.30;;;;;;;20.89;61.99;100533.84;5070931;27;20450;-80
2022/09/01 04:23:28;;;;;;;8.88;5.88;;;;;;;20.93;61.95;100546.78;5102544;28;20028;-83
2022/09/01 04:26:11;;;;;;;10.57;6.65;;;;;;;20.93;61.81;100543.22;5098045;27;20035;-82
2022/09/01 04:28:48;;;;;;;11.85;6.32;;;;;;;21.07;61.48;100542.81;5097409;27;20096;-81
2022/09/01 04:31:18;;;;;;;13.23;6.18;;;;;;;21.12;61.44;100539.38;5101884;27;20816;-82
2022/09/01 04:33:51;;;;;;;16.45;6.85;;;;;;;21.19;61.24;100539.25;5107773;27;20125;-80
2022/09/01 04:36:31;;;;;;;13.35;6.55;;;;;;;21.17;60.99;100538.66;5101305;27;20031;-80
2022/09/01 04:38:58;;;;;;;13.23;6.07;;;;;;;21.05;60.63;100508.56;5106347;27;20103;-81
2022/09/01 04:41:30;;;;;;;10.82;6.57;;;;;;;21.15;60.96;100527.97;5110272;27;20051;-81
2022/09/01 04:43:58;;;;;;;13.23;5.85;;;;;;;21.21;60.63;100532.50;5104926;27;20028;-83
2022/09/01 04:46:28;;;;;;;9.00;6.15;;;;;;;21.22;60.65;100534.16;5085061;28;20036;-83
2022/09/01 04:48:54;;;;;;;12.30;6.40;;;;;;;21.28;60.36;100527.75;5099802;27;20023;-81
2022/09/01 04:51:21;;;;;;;13.25;6.10;;;;;;;21.25;60.42;100525.47;5092714;28;20051;-81
2022/09/01 04:53:49;;;;;;;11.68;6.05;;;;;;;21.31;60.33;100522.88;5098177;28;20114;-80
2022/09/01 04:56:18;;;;;;;8.55;6.28;;;;;;;21.46;60.04;100536.97;5099315;28;20039;-81
2022/09/01 04:58:47;;;;;;;7.78;5.93;;;;;;;21.56;59.63;100545.41;5121865;28;20091;-81
2022/09/01 05:01:17;;;;;;;18.00;11.02;;;;;;;21.66;59.58;100539.38;5068978;28;20503;-81
2022/09/01 05:03:44;;;;;;;15.48;7.20;;;;;;;21.66;58.87;100518.31;5119046;28;20110;-81
2022/09/01 05:06:16;;;;;;;13.07;6.57;;;;;;;21.77;58.84;100530.31;5098780;28;20036;-82
2022/09/01 05:08:43;;;;;;;9.30;6.45;;;;;;;21.85;58.11;100519.00;5092000;28;20068;-83
2022/09/01 05:11:11;;;;;;;16.67;6.50;;;;;;;22.16;57.73;100535.28;5083725;28;20107;-83
2022/09/01 05:13:42;;;;;;;9.80;6.28;;;;;;;22.27;57.08;100529.00;5100814;28;20046;-80
2022/09/01 05:16:14;;;;;;;10.57;6.25;;;;;;;22.40;57.00;100534.19;5092412;28;20968;-79
2022/09/01 05:18:48;;;;;;;8.95;6.05;;;;;;;22.66;56.13;100540.19;5093279;28;20026;-81
2022/09/01 05:21:21;;;;;;;9.05;5.93;;;;;;;22.92;55.50;100536.88;5126993;28;20062;-81
2022/09/01 05:23:48;;;;;;;11.35;5.90;;;;;;;23.25;54.70;100538.03;5090623;28;20943;-81
2022/09/01 05:26:16;;;;;;;10.60;5.88;;;;;;;23.33;54.68;100521.16;5092964;28;20035;-81
2022/09/01 05:28:44;;;;;;;9.20;6.05;;;;;;;23.63;53.86;100509.00;5091486;28;20030;-83
2022/09/01 05:31:11;;;;;;;8.45;5.63;;;;;;;23.89;52.67;100517.66;5103907;28;20028;-83
2022/09/01 05:33:38;;;;;;;10.48;6.05;;;;;;;24.08;52.34;100494.28;5106329;27;20042;-79
2022/09/01 05:36:07;;;;;;;11.30;6.38;;;;;;;24.40;51.96;100512.81;5112401;27;20039;-82
2022/09/01 05:38:33;;;;;;;12.43;6.40;;;;;;;24.67;51.17;100529.38;5091410;27;20413;-83
2022/09/01 05:41:07;;;;;;;13.48;5.72;;;;;;;24.79;50.72;100498.97;5092245;27;20043;-83
2022/09/01 05:43:34;;;;;;;14.90;5.77;;;;;;;25.10;50.21;100510.28;5127996;27;20545;-83
2022/09/01 05:46:03;;;;;;;14.85;5.65;;;;;;;25.55;49.28;100522.81;5097980;27;20195;-82
2022/09/01 05:48:34;;;;;;;10.82;5.50;;;;;;;25.83;48.37;100529.88;5124411;27;20517;-83
2022/09/01 05:51:18;;;;;;;10.50;6.00;;;;;;;26.10;47.77;100529.78;5129789;27;20027;-84
2022/09/01 05:53:50;;;;;;;10.02;6.20;;;;;;;26.32;47.19;100527.69;5092165;27;20065;-83
2022/09/01 05:56:16;;;;;;;10.10;6.00;;;;;;;26.53;46.39;100536.03;5110044;27;20043;-83
2022/09/01 05:58:46;;;;;;;10.48;5.63;;;;;;;26.68;46.21;100530.59;5102091;28;20023;-82
2022/09/01 06:01:39;;;;;;;11.13;5.45;;;;;;;26.98;46.06;100529.00;5096477;27;20039;-84
2022/09/01 06:04:06;;;;;;;8.93;5.43;;;;;;;27.16;45.38;100517.44;5107592;27;20533;-83
2022/09/01 06:06:48;;;;;;;15.13;5.25;;;;;;;27.28;45.00;100522.72;5085228;27;20050;-83
2022/09/01 06:09:16;;;;;;;14.00;6.47;;;;;;;27.37;44.11;100528.53;5128841;27;20034;-86
2022/09/01 06:11:45;;;;;;;10.13;5.40;;;;;;;27.54;43.97;100531.81;5113972;27;20039;-85
2022/09/01 06:14:14;;;;;;;9.20;5.70;;;;;;;27.58;44.19;100521.88;5093090;27;20395;-88
2022/09/01 06:16:39;;;;;;;15.27;5.90;;;;;;;27.92;43.52;100534.28;5106663;27;20035;-83
2022/09/01 06:19:11;;;;;;;11.40;5.38;;;;;;;28.03;43.13;100515.75;5092894;27;20035;-86
2022/09/01 06:21:47;;;;;;;9.95;5.15;;;;;;;28.32;42.56;100543.56;5104585;27;20031;-85
2022/09/01 06:24:14;;;;;;;9.10;5.68;;;;;;;28.47;42.52;100531.63;5114264;27;20067;-87
2022/09/01 06:26:41;;;;;;;15.90;5.43;;;;;;;28.43;42.59;100517.53;5115116;27;20034;-85
2022/09/01 06:29:09;;;;;;;11.43;5.45;;;;;;;28.60;42.08;100536.56;5092833;27;20039;-86
2022/09/01 06:31:38;;;;;;;10.80;5.00;;;;;;;28.70;41.91;100536.47;5106521;28;20422;-90
2022/09/01 06:34:08;;;;;;;6.97;4.68;;;;;;;28.82;41.35;100534.22;5117598;27;20036;-89
2022/09/01 06:36:39;;;;;;;9.50;5.40;;;;;;;28.64;41.89;100506.41;5101649;27;20080;-87
2022/09/01 06:39:06;;;;;;;7.80;5.25;;;;;;;28.81;42.41;100527.03;5134025;27;20050;-87
2022/09/01 06:41:36;;;;;;;8.38;5.60;;;;;;;28.99;41.95;100521.94;5123737;27;20023;-85
2022/09/01 06:44:02;;;;;;;11.43;5.40;;;;;;;29.18;41.36;100536.78;5092467;27;20038;-87
2022/09/01 06:46:28;;;;;;;10.52;5.18;;;;;;;29.27;40.99;100533.38;5084525;27;20031;-85
2022/09/01 06:48:57;;;;;;;8.57;5.18;;;;;;;29.49;40.57;100553.13;5089170;28;20031;-86
2022/09/01 06:51:28;;;;;;;11.10;4.97;;;;;;;29.54;40.69;100544.78;5092652;28;20039;-85
2022/09/01 06:54:00;;;;;;;8.57;5.10;;;;;;;29.77;40.59;100545.16;5106064;27;20034;-84
2022/09/01 06:56:32;;;;;;;7.03;4.90;;;;;;;29.89;39.44;100562.19;5100409;28;20063;-83
2022/09/01 06:59:00;;;;;;;8.05;4.72;;;;;;;29.87;39.65;100551.41;5122213;27;20123;-85
2022/09/01 07:01:31;;;;;;;9.18;5.43;;;;;;;30.07;39.36;100541.25;5115493;27;20032;-85
2022/09/01 07:03:57;;;;;;;8.77;4.90;;;;;;;30.36;38.59;100557.00;5120155;27;20054;-83
2022/09/01 07:06:26;;;;;;;11.73;5.15;;;;;;;30.27;39.41;100556.81;5105385;27;20023;-84
2022/09/01 07:09:41;;;;;;;9.35;4.82;;;;;;;30.70;38.49;100554.06;5098519;27;20032;-85
2022/09/01 07:12:13;;;;;;;12.88;5.05;;;;;;;30.83;37.81;100552.50;5134572;27;20057;-87
2022/09/01 07:14:40;;;;;;;8.80;5.28;;;;;;;31.03;37.67;100540.31;5121884;27;20027;-84
2022/09/01 07:17:07;;;;;;;7.45;4.70;;;;;;;31.30;37.61;100537.66;5131301;27;20034;-83
2022/09/01 07:19:34;;;;;;;8.38;4.65;;;;;;;31.74;36.59;100553.03;5134181;27;20023;-83
2022/09/01 07:22:00;;;;;;;8.05;4.80;;;;;;;31.94;36.27;100562.13;5124297;27;20041;-84
2022/09/01 07:24:28;;;;;;;8.10;4.50;;;;;;;31.85;36.10;100555.63;5133126;27;20022;-82
2022/09/01 07:26:54;;;;;;;8.10;4.35;;;;;;;32.17;35.69;100561.16;5137755;27;20467;-83
2022/09/01 07:29:24;;;;;;;10.02;5.35;;;;;;;32.16;35.46;100562.25;5100369;28;20045;-85
2022/09/01 07:31:54;;;;;;;9.18;4.93;;;;;;;32.32;35.17;100553.63;5095536;27;20054;-82
2022/09/01 07:34:21;;;;;;;10.82;4.90;;;;;;;32.57;35.23;100555.91;5103988;28;20032;-86
2022/09/01 07:36:49;;;;;;;11.43;5.18;;;;;;;32.79;34.13;100562.66;5106956;27;20023;-93
2022/09/01 07:39:16;;;;;;;8.77;4.78;;;;;;;32.86;33.88;100557.47;5117945;27;20070;-88
2022/09/01 07:41:42;;;;;;;11.57;4.88;;;;;;;32.50;34.70;100566.63;5118090;27;20036;-87
2022/09/01 07:44:11;;;;;;;8.52;4.97;;;;;;;32.68;35.03;100558.44;5107584;28;20108;-86
2022/09/01 07:46:36;;;;;;;12.25;5.82;;;;;;;32.18;35.69;100564.75;5120267;27;20052;-87
2022/09/01 07:49:05;;;;;;;8.50;6.28;;;;;;;32.12;35.85;100555.69;5128044;27;20031;-86
2022/09/01 07:51:32;;;;;;;9.95;5.32;;;;;;;32.59;36.09;100575.06;5108434;27;20418;-84
2022/09/01 07:54:01;;;;;;;13.80;5.43;;;;;;;32.85;35.97;100550.28;5076790;28;20040;-88
2022/09/01 07:56:27;;;;;;;11.27;4.82;;;;;;;33.06;34.82;100559.00;5103563;28;20394;-86
2022/09/01 07:58:57;;;;;;;8.75;5.22;;;;;;;32.72;35.01;100562.25;5087106;27;20039;-87
2022/09/01 08:02:04;;;;;;;13.77;5.75;;;;;;;33.75;33.51;100561.47;5094380;27;20035;-87
2022/09/01 08:04:30;;;;;;;10.85;5.20;;;;;;;34.30;31.88;100545.50;5103925;27;20109;-89
2022/09/01 08:07:01;;;;;;;10.52;5.18;;;;;;;35.03;30.42;100568.97;5122312;27;20511;-91
2022/09/01 08:09:34;;;;;;;8.52;5.10;;;;;;;35.29;29.67;100557.00;5102399;27;20073;-93
2022/09/01 08:12:05;;;;;;;8.63;4.88;;;;;;;36.00;28.80;100558.50;5126798;27;20043;-92
2022/09/01 08:14:33;;;;;;;5.68;4.90;;;;;;;36.63;27.92;100553.13;5078092;27;20031;-87
2022/09/01 08:16:58;;;;;;;10.25;5.22;;;;;;;36.98;27.08;100539.69;5118845;27;20092;-86
2022/09/01 08:19:25;;;;;;;9.43;4.93;;;;;;;37.10;26.51;100531.34;5092519;28;20044;-86
2022/09/01 08:21:50;;;;;;;8.38;4.78;;;;;;;36.81;26.91;100548.19;5118872;27;20118;-83
2022/09/01 08:24:18;;;;;;;6.07;4.70;;;;;;;37.05;26.13;100542.75;5104675;27;20087;-84
2022/09/01 08:26:45;;;;;;;9.25;5.13;;;;;;;37.42;25.73;100542.94;5111920;28;20046;-83
2022/09/01 08:29:11;;;;;;;11.02;5.43;;;;;;;38.20;24.86;100542.03;5100351;27;20046;-85
2022/09/01 08:31:36;;;;;;;9.65;5.38;;;;;;;38.58;24.54;100537.22;5107998;27;20110;-84
2022/09/01 08:34:04;;;;;;;9.55;5.43;;;;;;;39.17;23.30;100545.06;5095911;27;20057;-87
2022/09/01 08:36:32;;;;;;;9.35;5.40;;;;;;;39.09;23.83;100517.91;5089925;27;20042;-85
2022/09/01 08:38:58;;;;;;;10.48;5.18;;;;;;;40.35;22.73;100533.31;5086416;27;20039;-83
2022/09/01 08:41:41;;;;;;;10.50;4.90;;;;;;;40.72;22.52;100547.06;5091235;28;20027;-91
2022/09/01 08:44:16;;;;;;;8.55;4.70;;;;;;;40.65;22.08;100538.44;5102509;28;20036;-86
2022/09/01 08:46:45;;;;;;;8.48;4.97;;;;;;;41.36;21.12;100515.78;5115747;27;20499;-90
2022/09/01 08:49:22;;;;;;;7.00;4.80;;;;;;;41.75;20.41;100517.31;5078648;27;20036;-85
2022/09/01 08:52:17;;;;;;;58.20;7.82;;;;;;;41.69;21.03;100518.81;5093941;27;20043;-84
2022/09/01 08:55:01;;;;;;;8.80;4.70;;;;;;;41.62;22.33;100520.72;5084553;28;20173;-84
2022/09/01 08:57:30;;;;;;;12.55;5.07;;;;;;;41.23;22.39;100520.75;5100568;28;20019;-83
2022/09/01 08:59:55;;;;;;;11.20;4.53;;;;;;;41.39;22.55;100515.81;5126986;28;20507;-85
2022/09/01 09:02:37;;;;;;;8.82;4.90;;;;;;;39.86;24.65;100517.63;5105798;28;20039;-85
2022/09/01 09:05:06;;;;;;;14.40;5.65;;;;;;;39.34;25.22;100517.81;5098981;28;20016;-85
2022/09/01 09:08:09;;;;;;;9.48;5.25;;;;;;;38.72;26.50;100529.25;5122279;27;20460;-85
2022/09/01 09:10:51;;;;;;;8.77;5.20;;;;;;;38.49;26.46;100502.84;5111362;27;20055;-87
2022/09/01 09:13:57;;;;;;;8.20;4.72;;;;;;;39.75;24.72;100510.88;5134727;27;20031;-84
2022/09/01 09:16:33;;;;;;;10.88;5.25;;;;;;;40.08;24.43;100516.16;5135647;27;20023;-85
2022/09/01 09:19:08;;;;;;;11.15;5.32;;;;;;;40.40;23.85;100513.31;5108605;27;20035;-87
2022/09/01 09:21:37;;;;;;;13.85;5.07;;;;;;;39.51;25.12;100511.88;5116543;27;20057;-85
2022/09/01 09:24:27;;;;;;;9.70;5.20;;;;;;;37.82;27.77;100503.06;5130268;27;20501;-83
2022/09/01 09:26:57;;;;;;;39.20;6.93;;;;;;;38.39;26.96;100496.50;5094921;27;20132;-85
2022/09/01 09:29:27;;;;;;;10.90;5.45;;;;;;;38.98;26.00;100480.25;5119227;27;20059;-86
2022/09/01 09:32:07;;;;;;;25.02;7.10;;;;;;;40.76;23.68;100487.97;5121854;28;20024;-85
2022/09/01 09:34:38;;;;;;;9.70;5.05;;;;;;;41.82;22.64;100498.84;5097919;27;20467;-86
2022/09/01 09:37:30;;;;;;;9.90;5.03;;;;;;;42.49;21.94;100482.19;5101048;27;20045;-87
2022/09/01 09:40:13;;;;;;;10.73;5.20;;;;;;;42.62;21.01;100484.78;5133900;27;20110;-87
2022/09/01 09:43:03;;;;;;;19.55;5.78;;;;;;;41.57;22.25;100490.00;5121121;27;20027;-87
2022/09/01 09:45:36;;;;;;;9.90;5.20;;;;;;;41.81;22.36;100471.84;5137054;27;20040;-87
2022/09/01 09:48:28;;;;;;;10.80;5.15;;;;;;;43.53;21.13;100493.91;5101330;27;20039;-87
2022/09/01 09:51:09;;;;;;;8.82;5.05;;;;;;;43.62;20.83;100498.09;5132915;27;20121;-87
2022/09/01 09:53:36;;;;;;;9.45;5.32;;;;;;;43.94;20.52;100482.56;5106770;28;20511;-87
2022/09/01 09:56:06;;;;;;;12.75;5.15;;;;;;;43.10;21.33;100485.78;5120731;28;20043;-87
2022/09/01 09:58:47;;;;;;;9.05;4.95;;;;;;;42.84;22.24;100464.09;5112245;28;20040;-90
2022/09/01 10:01:15;;;;;;;12.25;5.43;;;;;;;42.54;22.78;100495.97;5081280;28;20123;-89
2022/09/01 10:03:47;;;;;;;9.82;4.80;;;;;;;42.11;22.30;100467.09;5102269;28;20084;-89
2022/09/01 10:06:34;;;;;;;10.85;4.97;;;;;;;40.00;25.70;100486.22;5093839;28;20035;-86
2022/09/01 10:09:04;;;;;;;8.35;4.95;;;;;;;39.36;26.71;100476.94;5099810;28;20067;-85
2022/09/01 10:11:43;;;;;;;13.32;4.78;;;;;;;39.58;27.00;100475.50;5116721;27;20392;-86
2022/09/01 10:14:15;;;;;;;10.10;5.22;;;;;;;39.42;27.19;100477.47;5087706;28;20051;-87
2022/09/01 10:16:42;;;;;;;12.77;5.30;;;;;;;38.90;27.83;100484.81;5090003;28;20055;-84
2022/09/01 10:19:13;;;;;;;36.53;7.30;;;;;;;38.50;28.03;100493.28;5101402;28;20065;-84
2022/09/01 10:21:44;;;;;;;9.85;5.32;;;;;;;38.72;28.51;100491.91;5109574;28;20039;-84
2022/09/01 10:24:49;;;;;;;7.57;5.03;;;;;;;38.09;29.14;100490.34;5105428;28;20423;-84
2022/09/01 10:27:24;;;;;;;10.90;5.13;;;;;;;38.78;27.78;100471.66;5096536;27;20478;-85
2022/09/01 10:30:12;;;;;;;10.68;4.95;;;;;;;37.59;29.29;100502.69;5108612;27;20502;-84
2022/09/01 10:32:46;;;;;;;19.27;5.25;;;;;;;38.01;28.95;100472.47;5089764;28;20039;-85
2022/09/01 10:35:22;;;;;;;12.18;5.45;;;;;;;38.02;29.83;100478.91;5099764;28;20067;-84
2022/09/01 10:37:50;;;;;;;12.70;5.13;;;;;;;39.29;29.05;100473.06;5091695;28;20059;-86
2022/09/01 10:40:49;;;;;;;11.75;4.95;;;;;;;38.83;31.24;100471.38;5079524;28;20028;-86
2022/09/01 10:43:40;;;;;;;7.85;5.15;;;;;;;37.59;33.78;100492.28;5094827;28;20376;-85
2022/09/01 10:46:36;;;;;;;54.90;7.93;;;;;;;36.78;34.92;100495.69;5107909;28;20063;-85
2022/09/01 10:49:24;;;;;;;136.48;13.82;;;;;;;36.61;35.54;100468.66;5106939;28;20034;-87
2022/09/01 10:52:12;;;;;;;10.43;6.18;;;;;;;36.40;35.65;100452.63;5098713;28;20034;-86
2022/09/01 10:54:40;;;;;;;12.07;5.10;;;;;;;36.39;35.67;100494.97;5109166;27;20180;-84
2022/09/01 10:57:14;;;;;;;8.82;5.50;;;;;;;35.67;36.77;100480.81;5128100;27;20595;-85
2022/09/01 10:59:45;;;;;;;12.90;5.93;;;;;;;36.20;35.78;100493.44;5125237;27;20053;-86
2022/09/01 11:02:15;;;;;;;16.13;5.55;;;;;;;36.63;35.07;100475.53;5110480;27;20042;-82
2022/09/01 11:04:47;;;;;;;8.18;5.18;;;;;;;37.45;34.39;100497.38;5100998;27;20024;-84
2022/09/01 11:07:24;;;;;;;10.65;5.72;;;;;;;36.43;34.86;100484.72;5123668;27;20030;-83
2022/09/01 11:10:35;;;;;;;9.40;5.03;;;;;;;34.61;38.21;100482.06;5125093;27;20038;-85
2022/09/01 11:13:25;;;;;;;10.35;5.50;;;;;;;33.02;41.71;100480.00;5092601;27;20071;-85
2022/09/01 11:15:59;;;;;;;11.23;5.68;;;;;;;32.13;44.03;100462.78;5112499;27;20577;-88
2022/09/01 11:18:26;;;;;;;13.43;5.70;;;;;;;32.96;43.05;100479.28;5100879;28;20084;-85
2022/09/01 11:20:54;;;;;;;10.77;5.63;;;;;;;33.17;42.25;100476.03;5088666;27;20027;-84
2022/09/01 11:23:29;;;;;;;11.45;5.57;;;;;;;32.66;43.53;100441.06;5101362;27;20019;-86
2022/09/01 11:26:21;;;;;;;15.98;5.72;;;;;;;33.46;42.78;100463.56;5113849;27;20502;-84
2022/09/01 11:28:50;;;;;;;14.43;6.18;;;;;;;33.11;42.94;100457.81;5111515;27;20058;-92
2022/09/01 11:31:26;;;;;;;12.82;6.25;;;;;;;33.83;41.95;100474.28;5090269;27;20034;-85
2022/09/01 11:34:09;;;;;;;15.65;6.00;;;;;;;33.25;42.15;100461.34;5092572;27;20027;-84
2022/09/01 11:36:36;;;;;;;11.50;5.60;;;;;;;32.85;43.52;100465.94;5108966;27;20035;-84
2022/09/01 11:39:11;;;;;;;13.75;6.05;;;;;;;32.20;45.04;100467.13;5103842;27;20092;-83
2022/09/01 11:41:40;;;;;;;12.93;5.80;;;;;;;30.83;48.45;100489.50;5115577;27;20047;-89
2022/09/01 11:44:48;;;;;;;11.02;5.72;;;;;;;30.19;50.05;100477.06;5125618;27;20094;-83